sensor_id;sensor_type;location;lat;lon;timestamp;pressure;altitude;pressure_sealevel;temperature;humidity
35989;BME280;22064;42.672;23.282;2023-01-26T00:02:41;95076.31;;;-1.03;100.00
35989;BME280;22064;42.672;23.282;2023-01-26T00:05:25;95077.25;;;-1.04;100.00
35989;BME280;22064;42.672;23.282;2023-01-26T00:08:10;95076.78;;;-1.07;100.00
35989;BME280;22064;42.672;23.282;2023-01-26T00:10:55;95071.03;;;-1.01;100.00
35989;BME280;22064;42.672;23.282;2023-01-26T00:13:39;95079.19;;;-1.06;100.00
35989;BME280;22064;42.672;23.282;2023-01-26T00:16:25;95092.75;;;-1.05;100.00
35989;BME280;22064;42.672;23.282;2023-01-26T00:19:09;95090.50;;;-1.00;100.00
35989;BME280;22064;42.672;23.282;2023-01-26T00:21:54;95086.03;;;-1.06;100.00
35989;BME280;22064;42.672;23.282;2023-01-26T00:24:38;95083.63;;;-1.08;100.00
35989;BME280;22064;42.672;23.282;2023-01-26T00:27:23;95079.31;;;-1.16;100.00
35989;BME280;22064;42.672;23.282;2023-01-26T00:30:07;95075.19;;;-1.08;100.00
35989;BME280;22064;42.672;23.282;2023-01-26T00:32:53;95064.31;;;-1.10;100.00
35989;BME280;22064;42.672;23.282;2023-01-26T00:35:38;95056.97;;;-1.13;100.00
35989;BME280;22064;42.672;23.282;2023-01-26T00:38:23;95051.69;;;-1.04;100.00
35989;BME280;22064;42.672;23.282;2023-01-26T00:41:08;95051.22;;;-1.07;100.00
35989;BME280;22064;42.672;23.282;2023-01-26T00:43:52;95048.84;;;-1.09;100.00
35989;BME280;22064;42.672;23.282;2023-01-26T00:46:37;95047.72;;;-1.14;100.00
35989;BME280;22064;42.672;23.282;2023-01-26T00:49:21;95047.72;;;-1.14;100.00
35989;BME280;22064;42.672;23.282;2023-01-26T00:52:06;95047.72;;;-1.14;100.00
35989;BME280;22064;42.672;23.282;2023-01-26T00:54:50;95056.97;;;-1.13;100.00
35989;BME280;22064;42.672;23.282;2023-01-26T00:57:34;95034.94;;;-1.14;100.00
35989;BME280;22064;42.672;23.282;2023-01-26T01:00:21;95033.00;;;-1.29;100.00
35989;BME280;22064;42.672;23.282;2023-01-26T01:03:06;95003.94;;;-1.52;100.00
35989;BME280;22064;42.672;23.282;2023-01-26T01:05:50;95029.16;;;-1.41;100.00
35989;BME280;22064;42.672;23.282;2023-01-26T01:08:35;95036.19;;;-1.35;100.00
35989;BME280;22064;42.672;23.282;2023-01-26T01:11:19;95024.53;;;-1.37;100.00
35989;BME280;22064;42.672;23.282;2023-01-26T01:14:04;95031.38;;;-1.38;100.00
35989;BME280;22064;42.672;23.282;2023-01-26T01:16:48;95029.16;;;-1.41;100.00
35989;BME280;22064;42.672;23.282;2023-01-26T01:19:33;95038.91;;;-1.36;100.00
35989;BME280;22064;42.672;23.282;2023-01-26T01:22:17;95027.72;;;-1.35;100.00
35989;BME280;22064;42.672;23.282;2023-01-26T01:25:02;95018.31;;;-1.35;100.00
35989;BME280;22064;42.672;23.282;2023-01-26T01:27:47;95025.50;;;-1.38;100.00
35989;BME280;22064;42.672;23.282;2023-01-26T01:30:31;95018.16;;;-1.33;100.00
35989;BME280;22064;42.672;23.282;2023-01-26T01:33:15;95020.69;;;-1.25;100.00
35989;BME280;22064;42.672;23.282;2023-01-26T01:36:05;95016.38;;;-1.25;100.00
35989;BME280;22064;42.672;23.282;2023-01-26T01:38:50;95021.00;;;-1.28;100.00
35989;BME280;22064;42.672;23.282;2023-01-26T01:41:35;95012.25;;;-1.34;100.00
35989;BME280;22064;42.672;23.282;2023-01-26T01:44:22;95003.63;;;-1.33;100.00
35989;BME280;22064;42.672;23.282;2023-01-26T01:47:11;95006.66;;;-1.29;100.00
35989;BME280;22064;42.672;23.282;2023-01-26T01:49:57;95001.88;;;-1.32;100.00
35989;BME280;22064;42.672;23.282;2023-01-26T01:52:42;95009.03;;;-1.28;100.00
35989;BME280;22064;42.672;23.282;2023-01-26T01:55:26;95003.44;;;-1.31;100.00
35989;BME280;22064;42.672;23.282;2023-01-26T01:58:13;95003.00;;;-1.27;100.00
35989;BME280;22064;42.672;23.282;2023-01-26T02:00:57;95008.56;;;-1.31;100.00
35989;BME280;22064;42.672;23.282;2023-01-26T02:03:43;95005.06;;;-1.30;100.00
35989;BME280;22064;42.672;23.282;2023-01-26T02:09:20;94993.72;;;-1.36;100.00
35989;BME280;22064;42.672;23.282;2023-01-26T02:12:30;94983.31;;;-1.34;100.00
35989;BME280;22064;42.672;23.282;2023-01-26T02:15:15;94981.75;;;-1.27;100.00
35989;BME280;22064;42.672;23.282;2023-01-26T02:18:02;94977.28;;;-1.17;100.00
35989;BME280;22064;42.672;23.282;2023-01-26T02:20:54;94972.31;;;-1.27;100.00
35989;BME280;22064;42.672;23.282;2023-01-26T02:26:29;94957.31;;;-1.38;100.00
35989;BME280;22064;42.672;23.282;2023-01-26T02:29:14;94949.19;;;-1.33;100.00
35989;BME280;22064;42.672;23.282;2023-01-26T02:32:01;94947.72;;;-1.28;100.00
35989;BME280;22064;42.672;23.282;2023-01-26T02:34:45;94961.13;;;-1.26;100.00
35989;BME280;22064;42.672;23.282;2023-01-26T02:37:29;94955.56;;;-1.29;100.00
35989;BME280;22064;42.672;23.282;2023-01-26T02:40:29;94942.78;;;-1.37;100.00
35989;BME280;22064;42.672;23.282;2023-01-26T02:43:17;94944.22;;;-1.35;100.00
35989;BME280;22064;42.672;23.282;2023-01-26T02:46:02;94932.09;;;-1.41;100.00
35989;BME280;22064;42.672;23.282;2023-01-26T02:48:46;94929.72;;;-1.43;100.00
35989;BME280;22064;42.672;23.282;2023-01-26T02:51:49;94918.03;;;-1.53;100.00
35989;BME280;22064;42.672;23.282;2023-01-26T02:54:34;94936.25;;;-1.48;100.00
35989;BME280;22064;42.672;23.282;2023-01-26T02:57:37;94912.94;;;-1.45;100.00
35989;BME280;22064;42.672;23.282;2023-01-26T03:00:35;94906.25;;;-1.46;100.00
35989;BME280;22064;42.672;23.282;2023-01-26T03:03:28;94919.63;;;-1.44;100.00
35989;BME280;22064;42.672;23.282;2023-01-26T03:06:24;94923.00;;;-1.44;100.00
35989;BME280;22064;42.672;23.282;2023-01-26T03:09:09;94899.06;;;-1.51;100.00
35989;BME280;22064;42.672;23.282;2023-01-26T03:11:53;94907.19;;;-1.47;100.00
35989;BME280;22064;42.672;23.282;2023-01-26T03:14:38;94905.44;;;-1.47;100.00
35989;BME280;22064;42.672;23.282;2023-01-26T03:17:22;94898.09;;;-1.50;100.00
35989;BME280;22064;42.672;23.282;2023-01-26T03:20:08;94897.16;;;-1.49;100.00
35989;BME280;22064;42.672;23.282;2023-01-26T03:23:12;94883.09;;;-1.53;100.00
35989;BME280;22064;42.672;23.282;2023-01-26T03:26:15;94884.66;;;-1.44;100.00
35989;BME280;22064;42.672;23.282;2023-01-26T03:29:19;94890.28;;;-1.48;100.00
35989;BME280;22064;42.672;23.282;2023-01-26T03:32:04;94880.06;;;-1.48;100.00
35989;BME280;22064;42.672;23.282;2023-01-26T03:34:48;94885.16;;;-1.48;100.00
35989;BME280;22064;42.672;23.282;2023-01-26T03:37:32;94874.97;;;-1.48;100.00
35989;BME280;22064;42.672;23.282;2023-01-26T03:40:27;94872.06;;;-1.53;100.00
35989;BME280;22064;42.672;23.282;2023-01-26T03:43:30;94883.91;;;-1.60;100.00
35989;BME280;22064;42.672;23.282;2023-01-26T03:46:33;94870.81;;;-1.57;100.00
35989;BME280;22064;42.672;23.282;2023-01-26T03:49:36;94879.44;;;-1.58;100.00
35989;BME280;22064;42.672;23.282;2023-01-26T03:52:40;94857.56;;;-1.61;100.00
35989;BME280;22064;42.672;23.282;2023-01-26T03:55:43;94874.00;;;-1.47;100.00
35989;BME280;22064;42.672;23.282;2023-01-26T03:59:03;94871.28;;;-1.46;100.00
35989;BME280;22064;42.672;23.282;2023-01-26T04:01:56;94862.00;;;-1.47;100.00
35989;BME280;22064;42.672;23.282;2023-01-26T04:04:59;94868.88;;;-1.47;100.00
35989;BME280;22064;42.672;23.282;2023-01-26T04:08:06;94867.44;;;-1.42;100.00
35989;BME280;22064;42.672;23.282;2023-01-26T04:11:06;94851.97;;;-1.48;100.00
35989;BME280;22064;42.672;23.282;2023-01-26T04:13:51;94855.13;;;-1.38;100.00
35989;BME280;22064;42.672;23.282;2023-01-26T04:16:54;94853.38;;;-1.29;100.00
35989;BME280;22064;42.672;23.282;2023-01-26T04:19:56;94837.41;;;-1.31;100.00
35989;BME280;22064;42.672;23.282;2023-01-26T04:23:01;94827.38;;;-1.41;100.00
35989;BME280;22064;42.672;23.282;2023-01-26T04:25:46;94826.75;;;-1.43;100.00
35989;BME280;22064;42.672;23.282;2023-01-26T04:28:31;94817.47;;;-1.44;100.00
35989;BME280;22064;42.672;23.282;2023-01-26T04:31:16;94814.31;;;-1.54;100.00
35989;BME280;22064;42.672;23.282;2023-01-26T04:34:03;94815.44;;;-1.49;100.00
35989;BME280;22064;42.672;23.282;2023-01-26T04:36:48;94828.66;;;-1.45;100.00
35989;BME280;22064;42.672;23.282;2023-01-26T04:39:33;94819.41;;;-1.46;100.00
35989;BME280;22064;42.672;23.282;2023-01-26T04:42:18;94821.66;;;-1.51;100.00
35989;BME280;22064;42.672;23.282;2023-01-26T04:45:03;94824.03;;;-1.50;100.00
35989;BME280;22064;42.672;23.282;2023-01-26T04:47:48;94821.31;;;-1.56;100.00
35989;BME280;22064;42.672;23.282;2023-01-26T04:50:34;94829.00;;;-1.48;100.00
35989;BME280;22064;42.672;23.282;2023-01-26T04:53:19;94830.25;;;-1.44;100.00
35989;BME280;22064;42.672;23.282;2023-01-26T04:56:04;94833.78;;;-1.45;100.00
35989;BME280;22064;42.672;23.282;2023-01-26T04:58:49;94836.66;;;-1.40;100.00
35989;BME280;22064;42.672;23.282;2023-01-26T05:01:34;94826.75;;;-1.43;100.00
35989;BME280;22064;42.672;23.282;2023-01-26T05:04:21;94832.31;;;-1.40;100.00
35989;BME280;22064;42.672;23.282;2023-01-26T05:07:05;94826.44;;;-1.40;100.00
35989;BME280;22064;42.672;23.282;2023-01-26T05:09:50;94829.91;;;-1.41;100.00
35989;BME280;22064;42.672;23.282;2023-01-26T05:12:59;94826.44;;;-1.40;100.00
35989;BME280;22064;42.672;23.282;2023-01-26T05:15:57;94822.25;;;-1.33;100.00
35989;BME280;22064;42.672;23.282;2023-01-26T05:19:00;94823.19;;;-1.26;100.00
35989;BME280;22064;42.672;23.282;2023-01-26T05:22:05;94809.63;;;-1.26;100.00
35989;BME280;22064;42.672;23.282;2023-01-26T05:24:51;94815.84;;;-1.29;100.00
35989;BME280;22064;42.672;23.282;2023-01-26T05:27:53;94821.59;;;-1.27;100.00
35989;BME280;22064;42.672;23.282;2023-01-26T05:30:38;94813.13;;;-1.27;100.00
35989;BME280;22064;42.672;23.282;2023-01-26T05:33:22;94816.16;;;-1.24;100.00
35989;BME280;22064;42.672;23.282;2023-01-26T05:36:08;94807.69;;;-1.24;100.00
35989;BME280;22064;42.672;23.282;2023-01-26T05:38:52;94814.53;;;-1.25;100.00
35989;BME280;22064;42.672;23.282;2023-01-26T05:41:41;94815.66;;;-1.19;100.00
35989;BME280;22064;42.672;23.282;2023-01-26T05:44:46;94807.50;;;-1.14;100.00
35989;BME280;22064;42.672;23.282;2023-01-26T05:47:32;94801.59;;;-1.15;100.00
35989;BME280;22064;42.672;23.282;2023-01-26T05:50:16;94810.06;;;-1.14;100.00
35989;BME280;22064;42.672;23.282;2023-01-26T05:53:00;94811.78;;;-1.07;100.00
35989;BME280;22064;42.672;23.282;2023-01-26T05:55:47;94816.56;;;-1.04;100.00
35989;BME280;22064;42.672;23.282;2023-01-26T05:58:31;94808.44;;;-1.16;100.00
35989;BME280;22064;42.672;23.282;2023-01-26T06:01:16;94820.28;;;-1.14;100.00
35989;BME280;22064;42.672;23.282;2023-01-26T06:04:07;94823.63;;;-1.06;100.00
35989;BME280;22064;42.672;23.282;2023-01-26T06:07:01;94817.66;;;-0.98;100.00
35989;BME280;22064;42.672;23.282;2023-01-26T06:09:49;94806.78;;;-1.00;100.00
35989;BME280;22064;42.672;23.282;2023-01-26T06:12:53;94802.22;;;-1.13;100.00
35989;BME280;22064;42.672;23.282;2023-01-26T06:16:00;94794.22;;;-1.10;100.00
35989;BME280;22064;42.672;23.282;2023-01-26T06:18:47;94802.69;;;-1.09;100.00
35989;BME280;22064;42.672;23.282;2023-01-26T06:21:32;94806.34;;;-1.04;100.00
35989;BME280;22064;42.672;23.282;2023-01-26T06:24:17;94801.66;;;-0.92;100.00
35989;BME280;22064;42.672;23.282;2023-01-26T06:27:02;94809.31;;;-0.92;100.00
35989;BME280;22064;42.672;23.282;2023-01-26T06:29:46;94776.44;;;-0.95;100.00
35989;BME280;22064;42.672;23.282;2023-01-26T06:32:31;94788.75;;;-0.99;100.00
35989;BME280;22064;42.672;23.282;2023-01-26T06:35:15;94793.69;;;-0.97;100.00
35989;BME280;22064;42.672;23.282;2023-01-26T06:38:01;94780.09;;;-0.98;100.00
35989;BME280;22064;42.672;23.282;2023-01-26T06:40:45;94778.53;;;-0.99;100.00
35989;BME280;22064;42.672;23.282;2023-01-26T06:43:31;94775.78;;;-0.97;100.00
35989;BME280;22064;42.672;23.282;2023-01-26T06:46:16;94787.56;;;-0.88;100.00
35989;BME280;22064;42.672;23.282;2023-01-26T06:49:03;94777.19;;;-0.86;100.00
35989;BME280;22064;42.672;23.282;2023-01-26T06:51:57;94791.88;;;-0.80;100.00
35989;BME280;22064;42.672;23.282;2023-01-26T06:55:03;94773.66;;;-0.85;100.00
35989;BME280;22064;42.672;23.282;2023-01-26T06:58:20;94774.09;;;-0.74;100.00
35989;BME280;22064;42.672;23.282;2023-01-26T07:01:24;94776.31;;;-0.71;100.00
35989;BME280;22064;42.672;23.282;2023-01-26T07:04:09;94765.44;;;-0.73;100.00
35989;BME280;22064;42.672;23.282;2023-01-26T07:06:53;94772.16;;;-0.72;100.00
35989;BME280;22064;42.672;23.282;2023-01-26T07:09:38;94768.19;;;-0.74;100.00
35989;BME280;22064;42.672;23.282;2023-01-26T07:12:22;94745.50;;;-0.77;100.00
35989;BME280;22064;42.672;23.282;2023-01-26T07:15:07;94752.63;;;-0.64;100.00
35989;BME280;22064;42.672;23.282;2023-01-26T07:17:52;94776.19;;;-0.54;100.00
35989;BME280;22064;42.672;23.282;2023-01-26T07:20:37;94766.31;;;-0.57;100.00
35989;BME280;22064;42.672;23.282;2023-01-26T07:23:21;94747.63;;;-0.58;100.00
35989;BME280;22064;42.672;23.282;2023-01-26T07:26:06;94750.28;;;-0.51;100.00
35989;BME280;22064;42.672;23.282;2023-01-26T07:28:50;94746.41;;;-0.47;100.00
35989;BME280;22064;42.672;23.282;2023-01-26T07:31:35;94749.47;;;-0.29;100.00
35989;BME280;22064;42.672;23.282;2023-01-26T07:34:19;94749.22;;;-0.34;100.00
35989;BME280;22064;42.672;23.282;2023-01-26T07:37:04;94749.03;;;-0.32;100.00
35989;BME280;22064;42.672;23.282;2023-01-26T07:39:48;94748.69;;;-0.29;100.00
35989;BME280;22064;42.672;23.282;2023-01-26T07:42:33;94738.28;;;-0.28;100.00
35989;BME280;22064;42.672;23.282;2023-01-26T07:45:51;94741.06;;;-0.14;100.00
35989;BME280;22064;42.672;23.282;2023-01-26T07:48:36;94745.13;;;-0.05;100.00
35989;BME280;22064;42.672;23.282;2023-01-26T07:51:20;94728.88;;;-0.12;100.00
35989;BME280;22064;42.672;23.282;2023-01-26T07:54:06;94739.91;;;-0.12;100.00
35989;BME280;22064;42.672;23.282;2023-01-26T07:56:53;94751.03;;;-0.05;100.00
35989;BME280;22064;42.672;23.282;2023-01-26T07:59:38;94752.97;;;-0.07;100.00
35989;BME280;22064;42.672;23.282;2023-01-26T08:02:22;94746.13;;;-0.06;100.00
35989;BME280;22064;42.672;23.282;2023-01-26T08:05:06;94743.81;;;-0.01;100.00
35989;BME280;22064;42.672;23.282;2023-01-26T08:07:51;94737.09;;;-0.02;100.00
35989;BME280;22064;42.672;23.282;2023-01-26T08:10:35;94741.44;;;-0.03;100.00
35989;BME280;22064;42.672;23.282;2023-01-26T08:13:19;94743.56;;;-0.06;100.00
35989;BME280;22064;42.672;23.282;2023-01-26T08:16:06;94734.91;;;-0.05;100.00
35989;BME280;22064;42.672;23.282;2023-01-26T08:18:55;94713.53;;;-0.12;100.00
35989;BME280;22064;42.672;23.282;2023-01-26T08:21:39;94723.88;;;-0.06;100.00
35989;BME280;22064;42.672;23.282;2023-01-26T08:24:24;94721.06;;;0.04;100.00
35989;BME280;22064;42.672;23.282;2023-01-26T08:27:09;94723.28;;;0.07;100.00
35989;BME280;22064;42.672;23.282;2023-01-26T08:29:53;94728.84;;;0.11;100.00
35989;BME280;22064;42.672;23.282;2023-01-26T08:32:38;94729.28;;;0.14;100.00
35989;BME280;22064;42.672;23.282;2023-01-26T08:35:22;94724.69;;;0.25;100.00
35989;BME280;22064;42.672;23.282;2023-01-26T08:38:06;94717.09;;;0.16;100.00
35989;BME280;22064;42.672;23.282;2023-01-26T08:40:51;94711.53;;;0.13;100.00
35989;BME280;22064;42.672;23.282;2023-01-26T08:43:36;94715.59;;;0.22;100.00
35989;BME280;22064;42.672;23.282;2023-01-26T08:46:20;94716.84;;;0.26;100.00
35989;BME280;22064;42.672;23.282;2023-01-26T08:49:04;94719.69;;;0.31;100.00
35989;BME280;22064;42.672;23.282;2023-01-26T08:51:49;94707.66;;;0.32;100.00
35989;BME280;22064;42.672;23.282;2023-01-26T08:54:33;94720.72;;;0.37;100.00
35989;BME280;22064;42.672;23.282;2023-01-26T08:57:18;94727.88;;;0.41;100.00
35989;BME280;22064;42.672;23.282;2023-01-26T09:00:03;94711.88;;;0.39;100.00
35989;BME280;22064;42.672;23.282;2023-01-26T09:02:47;94712.75;;;0.46;100.00
35989;BME280;22064;42.672;23.282;2023-01-26T09:05:34;94711.88;;;0.54;100.00
35989;BME280;22064;42.672;23.282;2023-01-26T09:08:18;94718.06;;;0.60;100.00
35989;BME280;22064;42.672;23.282;2023-01-26T09:11:07;94717.88;;;0.61;100.00
35989;BME280;22064;42.672;23.282;2023-01-26T09:13:51;94718.88;;;0.60;100.00
35989;BME280;22064;42.672;23.282;2023-01-26T09:16:41;94712.06;;;0.53;100.00
35989;BME280;22064;42.672;23.282;2023-01-26T09:19:26;94705.19;;;0.53;100.00
35989;BME280;22064;42.672;23.282;2023-01-26T09:22:10;94695.00;;;0.60;100.00
35989;BME280;22064;42.672;23.282;2023-01-26T09:24:55;94695.19;;;0.58;100.00
35989;BME280;22064;42.672;23.282;2023-01-26T09:27:39;94697.81;;;0.65;100.00
35989;BME280;22064;42.672;23.282;2023-01-26T09:30:24;94688.75;;;0.62;100.00
35989;BME280;22064;42.672;23.282;2023-01-26T09:33:08;94684.50;;;0.55;100.00
35989;BME280;22064;42.672;23.282;2023-01-26T09:35:53;94668.13;;;0.56;100.00
35989;BME280;22064;42.672;23.282;2023-01-26T09:38:37;94672.53;;;0.62;100.00
35989;BME280;22064;42.672;23.282;2023-01-26T09:44:25;94680.69;;;0.65;100.00
35989;BME280;22064;42.672;23.282;2023-01-26T09:47:20;94685.44;;;0.68;100.00
35989;BME280;22064;42.672;23.282;2023-01-26T09:50:17;94673.00;;;0.65;100.00
35989;BME280;22064;42.672;23.282;2023-01-26T09:53:06;94669.97;;;0.77;100.00
35989;BME280;22064;42.672;23.282;2023-01-26T09:55:55;94647.25;;;0.74;100.00
35989;BME280;22064;42.672;23.282;2023-01-26T09:58:40;94654.69;;;0.68;100.00
35989;BME280;22064;42.672;23.282;2023-01-26T10:01:41;94660.28;;;0.72;100.00
35989;BME280;22064;42.672;23.282;2023-01-26T10:04:34;94657.88;;;0.71;100.00
35989;BME280;22064;42.672;23.282;2023-01-26T10:07:20;94657.50;;;0.74;100.00
35989;BME280;22064;42.672;23.282;2023-01-26T10:10:19;94659.19;;;0.81;100.00
35989;BME280;22064;42.672;23.282;2023-01-26T10:13:05;94634.78;;;0.85;100.00
35989;BME280;22064;42.672;23.282;2023-01-26T10:15:57;94634.34;;;0.82;100.00
35989;BME280;22064;42.672;23.282;2023-01-26T10:18:50;94628.59;;;0.80;100.00
35989;BME280;22064;42.672;23.282;2023-01-26T10:21:40;94603.38;;;0.83;100.00
35989;BME280;22064;42.672;23.282;2023-01-26T10:24:27;94605.78;;;0.85;100.00
35989;BME280;22064;42.672;23.282;2023-01-26T10:27:11;94589.06;;;0.89;100.00
35989;BME280;22064;42.672;23.282;2023-01-26T10:29:57;94585.13;;;0.93;100.00
35989;BME280;22064;42.672;23.282;2023-01-26T10:32:43;94586.97;;;0.99;100.00
35989;BME280;22064;42.672;23.282;2023-01-26T10:35:28;94575.75;;;1.00;100.00
35989;BME280;22064;42.672;23.282;2023-01-26T10:41:25;94559.88;;;0.90;100.00
35989;BME280;22064;42.672;23.282;2023-01-26T10:47:23;94533.81;;;0.86;100.00
35989;BME280;22064;42.672;23.282;2023-01-26T10:50:19;94534.44;;;0.88;100.00
35989;BME280;22064;42.672;23.282;2023-01-26T10:53:04;94524.72;;;0.84;100.00
35989;BME280;22064;42.672;23.282;2023-01-26T10:56:03;94525.81;;;0.96;100.00
35989;BME280;22064;42.672;23.282;2023-01-26T10:58:51;94525.59;;;0.91;100.00
35989;BME280;22064;42.672;23.282;2023-01-26T11:02:33;94517.56;;;1.01;100.00
35989;BME280;22064;42.672;23.282;2023-01-26T11:07:54;94501.63;;;1.05;100.00
35989;BME280;22064;42.672;23.282;2023-01-26T11:10:51;94503.09;;;1.21;100.00
35989;BME280;22064;42.672;23.282;2023-01-26T11:13:36;94491.84;;;1.15;100.00
35989;BME280;22064;42.672;23.282;2023-01-26T11:16:23;94490.34;;;1.28;100.00
35989;BME280;22064;42.672;23.282;2023-01-26T11:19:12;94484.22;;;1.29;100.00
35989;BME280;22064;42.672;23.282;2023-01-26T11:31:25;94445.81;;;1.42;100.00
35989;BME280;22064;42.672;23.282;2023-01-26T11:34:38;94467.41;;;1.54;100.00
35989;BME280;22064;42.672;23.282;2023-01-26T11:40:47;94457.81;;;1.70;100.00
35989;BME280;22064;42.672;23.282;2023-01-26T11:46:54;94445.38;;;1.73;100.00
35989;BME280;22064;42.672;23.282;2023-01-26T11:50:12;94447.31;;;1.71;100.00
35989;BME280;22064;42.672;23.282;2023-01-26T11:53:25;94448.94;;;1.72;100.00
35989;BME280;22064;42.672;23.282;2023-01-26T11:59:37;94430.81;;;1.39;100.00
35989;BME280;22064;42.672;23.282;2023-01-26T12:02:37;94425.69;;;1.39;100.00
35989;BME280;22064;42.672;23.282;2023-01-26T12:05:27;94430.03;;;1.38;100.00
35989;BME280;22064;42.672;23.282;2023-01-26T12:08:25;94425.28;;;1.35;100.00
35989;BME280;22064;42.672;23.282;2023-01-26T12:14:17;94419.66;;;1.19;100.00
35989;BME280;22064;42.672;23.282;2023-01-26T12:22:44;94389.06;;;1.17;100.00
35989;BME280;22064;42.672;23.282;2023-01-26T12:25:35;94380.97;;;1.13;100.00
35989;BME280;22064;42.672;23.282;2023-01-26T12:31:32;94375.59;;;1.08;100.00
35989;BME280;22064;42.672;23.282;2023-01-26T12:34:26;94363.94;;;1.06;100.00
35989;BME280;22064;42.672;23.282;2023-01-26T12:40:39;94370.88;;;1.12;100.00
35989;BME280;22064;42.672;23.282;2023-01-26T12:43:51;94364.03;;;1.19;100.00
35989;BME280;22064;42.672;23.282;2023-01-26T12:46:43;94357.69;;;1.15;100.00
35989;BME280;22064;42.672;23.282;2023-01-26T12:49:34;94370.47;;;1.08;100.00
35989;BME280;22064;42.672;23.282;2023-01-26T12:52:22;94355.13;;;1.15;100.00
35989;BME280;22064;42.672;23.282;2023-01-26T12:55:27;94358.88;;;1.12;100.00
35989;BME280;22064;42.672;23.282;2023-01-26T12:58:20;94357.50;;;1.17;100.00
35989;BME280;22064;42.672;23.282;2023-01-26T13:01:14;94341.44;;;1.01;100.00
35989;BME280;22064;42.672;23.282;2023-01-26T13:04:05;94350.97;;;1.14;100.00
35989;BME280;22064;42.672;23.282;2023-01-26T13:07:03;94339.16;;;1.13;100.00
35989;BME280;22064;42.672;23.282;2023-01-26T13:10:17;94349.38;;;1.06;100.00
35989;BME280;22064;42.672;23.282;2023-01-26T13:18:59;94348.06;;;1.24;100.00
35989;BME280;22064;42.672;23.282;2023-01-26T13:21:44;94340.38;;;1.24;100.00
35989;BME280;22064;42.672;23.282;2023-01-26T13:30:44;94336.06;;;1.31;100.00
35989;BME280;22064;42.672;23.282;2023-01-26T13:33:29;94319.28;;;1.22;100.00
35989;BME280;22064;42.672;23.282;2023-01-26T13:36:15;94312.34;;;1.15;100.00
35989;BME280;22064;42.672;23.282;2023-01-26T13:39:17;94326.16;;;1.21;100.00
35989;BME280;22064;42.672;23.282;2023-01-26T13:42:09;94327.13;;;1.20;100.00
35989;BME280;22064;42.672;23.282;2023-01-26T13:45:00;94330.09;;;1.17;100.00
35989;BME280;22064;42.672;23.282;2023-01-26T13:47:48;94326.53;;;1.18;100.00
35989;BME280;22064;42.672;23.282;2023-01-26T13:50:34;94324.56;;;1.13;100.00
35989;BME280;22064;42.672;23.282;2023-01-26T13:59:19;94318.88;;;1.25;100.00
35989;BME280;22064;42.672;23.282;2023-01-26T14:02:10;94310.56;;;1.23;100.00
35989;BME280;22064;42.672;23.282;2023-01-26T14:04:54;94319.69;;;1.32;100.00
35989;BME280;22064;42.672;23.282;2023-01-26T14:07:42;94308.81;;;1.30;100.00
35989;BME280;22064;42.672;23.282;2023-01-26T14:10:27;94307.88;;;1.37;100.00
35989;BME280;22064;42.672;23.282;2023-01-26T14:13:41;94302.31;;;1.34;100.00
35989;BME280;22064;42.672;23.282;2023-01-26T14:16:36;94297.16;;;1.27;100.00
35989;BME280;22064;42.672;23.282;2023-01-26T14:19:21;94303.66;;;1.23;100.00
35989;BME280;22064;42.672;23.282;2023-01-26T14:22:10;94300.13;;;1.24;100.00
35989;BME280;22064;42.672;23.282;2023-01-26T14:24:55;94307.66;;;1.32;100.00
35989;BME280;22064;42.672;23.282;2023-01-26T14:27:40;94302.31;;;1.34;100.00
35989;BME280;22064;42.672;23.282;2023-01-26T14:30:32;94305.69;;;1.34;100.00
35989;BME280;22064;42.672;23.282;2023-01-26T14:33:17;94298.00;;;1.41;100.00
35989;BME280;22064;42.672;23.282;2023-01-26T14:36:03;94291.88;;;1.42;100.00
35989;BME280;22064;42.672;23.282;2023-01-26T14:38:49;94293.88;;;1.47;100.00
35989;BME280;22064;42.672;23.282;2023-01-26T14:41:34;94281.03;;;1.40;100.00
35989;BME280;22064;42.672;23.282;2023-01-26T14:44:20;94291.28;;;1.40;100.00
35989;BME280;22064;42.672;23.282;2023-01-26T14:47:19;94286.75;;;1.42;100.00
35989;BME280;22064;42.672;23.282;2023-01-26T14:50:15;94274.47;;;1.24;100.00
35989;BME280;22064;42.672;23.282;2023-01-26T14:53:16;94287.34;;;1.37;100.00
35989;BME280;22064;42.672;23.282;2023-01-26T14:56:00;94281.84;;;1.41;100.00
35989;BME280;22064;42.672;23.282;2023-01-26T14:58:49;94286.38;;;1.45;100.00
35989;BME280;22064;42.672;23.282;2023-01-26T15:01:34;94288.53;;;1.42;100.00
35989;BME280;22064;42.672;23.282;2023-01-26T15:04:24;94279.66;;;1.44;100.00
35989;BME280;22064;42.672;23.282;2023-01-26T15:10:37;94270.38;;;1.43;100.00
35989;BME280;22064;42.672;23.282;2023-01-26T15:13:24;94259.31;;;1.36;100.00
35989;BME280;22064;42.672;23.282;2023-01-26T15:16:18;94251.22;;;1.39;100.00
35989;BME280;22064;42.672;23.282;2023-01-26T15:19:04;94247.47;;;1.35;100.00
35989;BME280;22064;42.672;23.282;2023-01-26T15:21:51;94229.53;;;1.35;100.00
35989;BME280;22064;42.672;23.282;2023-01-26T15:24:35;94225.56;;;1.32;100.00
35989;BME280;22064;42.672;23.282;2023-01-26T15:27:19;94225.97;;;1.36;100.00
35989;BME280;22064;42.672;23.282;2023-01-26T15:30:04;94226.75;;;1.36;100.00
35989;BME280;22064;42.672;23.282;2023-01-26T15:32:51;94218.50;;;1.41;100.00
35989;BME280;22064;42.672;23.282;2023-01-26T15:35:35;94217.88;;;1.39;100.00
35989;BME280;22064;42.672;23.282;2023-01-26T15:38:20;94219.03;;;1.17;100.00
35989;BME280;22064;42.672;23.282;2023-01-26T15:41:07;94209.06;;;0.87;100.00
35989;BME280;22064;42.672;23.282;2023-01-26T15:43:52;94190.78;;;0.49;100.00
35989;BME280;22064;42.672;23.282;2023-01-26T15:46:36;94183.09;;;0.42;100.00
35989;BME280;22064;42.672;23.282;2023-01-26T15:49:20;94182.34;;;0.13;100.00
35989;BME280;22064;42.672;23.282;2023-01-26T15:52:14;94179.31;;;0.03;100.00
35989;BME280;22064;42.672;23.282;2023-01-26T15:54:59;94170.00;;;-0.11;100.00